Gaardsjoe, Sweden

3:47 AM CEST on July 27, 2016 (GMT +0200)
Flottarstigen Laxå | | Change Station

Elev 394 ft 58.97 °N, 14.64 °E | Updated 3 minutes ago

Clear
Clear
55.9 °F
Feels Like 55.9 °F
N
1.2
Wind Variable Wind from West

Today
High -- | Low -- °F
--% Chance of Precip.
Yesterday
High -- | Low -- °F
Precip. -- in
Pressure 30.04 in
Visibility 6.2 miles
Clouds
Dew Point 50 °F
Humidity 83%
Rainfall Not available.
Snow Depth Not available.
4:40 AM 9:36 PM
Waning Gibbous, 49% visible
METAR ESGR 270120Z AUTO 17005KT 140V220 9999 NCD 11/09 Q1017
Pressure 30.04 in
Visibility 6.2 miles
Clouds
Dew Point 50 °F
Humidity 83%
Rainfall Not available.
Snow Depth Not available.
4:40 AM 9:36 PM
Waning Gibbous, 49% visible
METAR ESGR 270120Z AUTO 17005KT 140V220 9999 NCD 11/09 Q1017

10-Day Weather Forecast

×

Almanac

Astronomy

Jul. 27, 2016 Rise Set
Actual Time
Civil Twilight
Nautical Twilight
Astronomical Twilight
Moon
Length of Visible Light
Length of Day
Tomorrow will be .
, % of the Moon is Illuminated

Today's Extremes

Country Highs Country Lows

Community

WunderPhotos

Upload Photos

1,927,772 photos uploaded!

WunderBlog® & News

Nearby

Air Quality

  Air Quality AQ Index Pollutant
Not available.

Snow Depth

Station Depth Elevation

Earthquake Activity

City Distance Mag. Time & Date
Minimum magnitude displayed is 2.5.

Coastal Water Temperatures

Place Temperature

Stations

Nearby Weather Stations

Station Location Temp. Windchill Dew Point Humidity Wind Precip. Elev Updated Type